Time;durP1;ratioP1;P1;durP2;ratioP2;P2;SDS_P1;SDS_P2;PMS_P1;PMS_P2;Temp;Humidity;BMP_temperature;BMP_pressure;BME280_temperature;BME280_humidity;BME280_pressure;Samples;Min_cycle;Max_cycle;Signal;HPM_P1;HPM_P2
2023/08/09 00:01:55;;;;;;;11.77;8.35;;;;;;;28.91;nan;97502.44;5063637;28;20071;-65
2023/08/09 00:04:24;;;;;;;13.77;8.63;;;;;;;28.87;nan;97500.72;5079823;28;20051;-66
2023/08/09 00:06:53;;;;;;;16.10;8.52;;;;;;;28.91;nan;97507.09;5065818;28;20052;-65
2023/08/09 00:09:23;;;;;;;16.27;8.68;;;;;;;28.86;nan;97502.66;5065233;28;20143;-65
2023/08/09 00:11:52;;;;;;;17.50;10.02;;;;;;;28.83;nan;97499.81;5064891;28;20052;-66
2023/08/09 00:14:21;;;;;;;14.07;9.23;;;;;;;28.84;nan;97495.97;5064959;28;20063;-66
2023/08/09 00:16:50;;;;;;;16.55;10.18;;;;;;;28.79;nan;97491.53;5065009;28;20059;-65
2023/08/09 00:19:20;;;;;;;21.08;12.30;;;;;;;28.68;nan;97498.53;5064750;28;20059;-65
2023/08/09 00:21:49;;;;;;;18.67;11.43;;;;;;;28.71;nan;97497.88;5065903;28;20040;-65
2023/08/09 00:24:19;;;;;;;15.98;10.77;;;;;;;28.72;nan;97504.94;5069328;28;20499;-66
2023/08/09 00:26:48;;;;;;;17.52;11.63;;;;;;;28.73;nan;97505.72;5042665;28;20098;-66
2023/08/09 00:29:17;;;;;;;18.27;11.80;;;;;;;28.75;nan;97503.44;5044423;28;20067;-65
2023/08/09 00:31:47;;;;;;;16.02;11.57;;;;;;;28.78;nan;97502.75;5061124;28;20460;-65
2023/08/09 00:34:17;;;;;;;16.30;10.63;;;;;;;28.81;nan;97515.72;5061139;28;20136;-65
2023/08/09 00:36:48;;;;;;;20.75;10.65;;;;;;;28.72;nan;97507.66;5047835;28;20114;-65
2023/08/09 00:39:17;;;;;;;13.05;10.15;;;;;;;28.75;nan;97509.69;5047178;28;20143;-65
2023/08/09 00:41:46;;;;;;;17.95;11.48;;;;;;;28.78;nan;97508.22;5032275;28;20056;-65
2023/08/09 00:44:17;;;;;;;17.30;11.70;;;;;;;28.75;nan;97514.34;5045144;28;20072;-66
2023/08/09 00:46:47;;;;;;;15.00;11.20;;;;;;;28.80;nan;97517.66;5047067;28;20044;-67
2023/08/09 00:49:17;;;;;;;20.17;11.40;;;;;;;28.80;nan;97514.13;5048553;28;20060;-66
2023/08/09 00:51:47;;;;;;;15.40;11.32;;;;;;;28.79;nan;97515.25;5015661;28;20215;-66
2023/08/09 00:54:18;;;;;;;20.13;12.38;;;;;;;28.87;nan;97525.25;5046387;28;20052;-66
2023/08/09 00:56:47;;;;;;;22.73;11.77;;;;;;;28.81;nan;97519.22;5046377;28;20044;-66
2023/08/09 00:59:17;;;;;;;18.80;12.20;;;;;;;28.83;nan;97527.88;5031326;28;20064;-66
2023/08/09 01:01:47;;;;;;;26.08;13.02;;;;;;;28.85;nan;97528.34;5026431;28;20656;-66
2023/08/09 01:04:17;;;;;;;20.95;12.38;;;;;;;28.89;nan;97523.00;5029747;28;20057;-66
2023/08/09 01:06:56;;;;;;;19.63;12.43;;;;;;;28.90;nan;97530.81;5047070;28;20044;-66
2023/08/09 01:09:48;;;;;;;22.73;12.80;;;;;;;28.97;nan;97541.19;5047320;28;20622;-66
2023/08/09 01:12:27;;;;;;;20.23;13.30;;;;;;;28.99;nan;97536.16;5033017;28;20098;-66
2023/08/09 01:15:01;;;;;;;24.70;13.38;;;;;;;29.02;nan;97539.03;5059168;28;20309;-66
2023/08/09 01:17:33;;;;;;;19.60;14.10;;;;;;;29.10;nan;97537.31;5030878;28;20086;-66
2023/08/09 01:20:04;;;;;;;23.85;14.15;;;;;;;29.15;nan;97545.28;5029849;28;20048;-66
2023/08/09 01:22:38;;;;;;;23.02;14.07;;;;;;;29.10;nan;97550.16;5045005;28;20080;-66
2023/08/09 01:25:08;;;;;;;23.35;14.57;;;;;;;29.13;nan;97563.09;5053017;28;20048;-67
2023/08/09 01:27:37;;;;;;;22.40;14.73;;;;;;;29.19;nan;97570.72;5056897;28;20056;-66
2023/08/09 01:30:09;;;;;;;25.52;15.02;;;;;;;29.27;nan;97569.00;5047027;28;20043;-66
2023/08/09 01:32:39;;;;;;;22.20;14.68;;;;;;;29.27;nan;97579.91;5061427;28;20064;-66
2023/08/09 01:35:10;;;;;;;27.95;15.13;;;;;;;29.33;nan;97578.59;5047181;28;20055;-66
2023/08/09 01:38:05;;;;;;;21.73;15.55;;;;;;;29.44;nan;97574.25;5045797;28;20056;-66
2023/08/09 01:40:36;;;;;;;25.25;15.88;;;;;;;29.45;nan;97582.09;5046777;28;20059;-66
2023/08/09 01:43:07;;;;;;;28.05;16.27;;;;;;;29.52;nan;97578.00;5047471;28;20098;-66
2023/08/09 01:45:38;;;;;;;25.75;16.60;;;;;;;29.64;nan;97578.78;5047266;28;20048;-66
2023/08/09 01:48:07;;;;;;;25.95;16.88;;;;;;;29.70;nan;97565.66;5041348;28;20044;-66
2023/08/09 01:50:40;;;;;;;29.30;17.02;;;;;;;29.78;nan;97586.59;5043280;28;20136;-66
2023/08/09 01:53:10;;;;;;;28.50;15.93;;;;;;;29.76;nan;97580.69;5023605;28;20052;-66
2023/08/09 01:55:41;;;;;;;24.50;16.00;;;;;;;29.98;nan;97593.06;5036092;28;20053;-67
2023/08/09 01:58:10;;;;;;;27.50;16.38;;;;;;;30.05;nan;97588.59;5017042;28;20053;-67
2023/08/09 02:00:39;;;;;;;34.58;16.60;;;;;;;30.17;nan;97596.75;5044937;28;20049;-65
2023/08/09 02:03:09;;;;;;;26.00;16.02;;;;;;;30.23;nan;97594.56;5045893;28;20486;-68
2023/08/09 02:05:38;;;;;;;30.90;16.25;;;;;;;30.35;nan;97602.72;5061608;28;20131;-64
2023/08/09 02:08:08;;;;;;;28.05;16.10;;;;;;;30.39;nan;97611.81;5046172;28;20044;-64
2023/08/09 02:10:37;;;;;;;24.60;16.52;;;;;;;30.45;nan;97618.63;5026084;28;20041;-66
2023/08/09 02:13:06;;;;;;;24.00;16.35;;;;;;;30.54;nan;97630.19;5038096;28;20041;-64
2023/08/09 02:15:35;;;;;;;29.90;16.52;;;;;;;30.81;nan;97625.06;5030726;28;20056;-65
2023/08/09 02:18:05;;;;;;;24.33;15.85;;;;;;;30.70;nan;97625.59;5046381;28;20068;-65
2023/08/09 02:20:34;;;;;;;22.67;15.98;;;;;;;31.10;nan;97633.69;5064393;28;20100;-65
2023/08/09 02:23:05;;;;;;;26.05;14.35;;;;;;;30.85;nan;97637.66;5049127;28;20699;-66
2023/08/09 02:25:35;;;;;;;21.38;13.32;;;;;;;31.01;nan;97629.53;5078266;28;20113;-65
2023/08/09 02:28:04;;;;;;;22.23;12.82;;;;;;;31.21;nan;97645.69;5085885;28;20550;-65
2023/08/09 02:30:33;;;;;;;19.73;13.00;;;;;;;31.29;nan;97638.44;5070153;28;20051;-65
2023/08/09 02:33:03;;;;;;;20.67;11.45;;;;;;;31.60;nan;97646.66;5069860;28;20040;-65
2023/08/09 02:35:46;;;;;;;21.77;11.70;;;;;;;31.45;nan;97643.91;5086197;28;20131;-65
2023/08/09 02:38:16;;;;;;;19.13;10.85;;;;;;;31.62;nan;97651.78;5103313;28;20454;-65
2023/08/09 02:40:45;;;;;;;14.85;9.45;;;;;;;31.63;nan;97653.38;5086712;28;20134;-66
2023/08/09 02:43:16;;;;;;;14.38;10.13;;;;;;;31.73;nan;97649.31;5103944;28;20051;-66
2023/08/09 02:45:47;;;;;;;14.20;9.00;;;;;;;31.97;nan;97655.34;5087052;28;20047;-66
2023/08/09 02:48:17;;;;;;;15.07;9.27;;;;;;;31.57;nan;97652.06;5085299;28;20055;-66
2023/08/09 02:50:47;;;;;;;18.75;10.60;;;;;;;31.40;nan;97652.38;5105009;28;20056;-66
2023/08/09 02:53:17;;;;;;;20.10;9.25;;;;;;;31.69;nan;97653.91;5086016;28;20377;-66
2023/08/09 02:55:46;;;;;;;18.23;7.88;;;;;;;31.82;nan;97653.41;5085588;28;20143;-66
2023/08/09 02:58:15;;;;;;;15.48;7.70;;;;;;;31.75;nan;97660.69;5066161;28;20736;-66
2023/08/09 03:00:45;;;;;;;12.80;7.55;;;;;;;31.98;nan;97661.59;5093406;28;20047;-66
2023/08/09 03:03:14;;;;;;;18.60;8.25;;;;;;;31.96;nan;97670.16;5099783;28;20043;-66
2023/08/09 03:05:49;;;;;;;22.15;8.43;;;;;;;31.90;nan;97674.34;5075739;28;20485;-65
2023/08/09 03:08:18;;;;;;;14.93;8.75;;;;;;;32.01;nan;97671.84;5083669;28;20074;-65
2023/08/09 03:10:48;;;;;;;12.88;7.80;;;;;;;31.55;nan;97679.00;5078805;28;20479;-66
2023/08/09 03:13:17;;;;;;;15.98;8.90;;;;;;;31.62;nan;97682.69;5080944;28;20067;-65
2023/08/09 03:15:47;;;;;;;16.23;8.85;;;;;;;31.48;nan;97687.00;5077875;28;20043;-65
2023/08/09 03:18:17;;;;;;;19.17;10.45;;;;;;;31.62;nan;97677.22;5066407;28;20479;-66
2023/08/09 03:20:46;;;;;;;23.02;10.95;;;;;;;31.60;nan;97689.69;5083207;28;20048;-66
2023/08/09 03:23:16;;;;;;;22.42;9.75;;;;;;;31.38;nan;97680.09;5081400;28;20083;-66
2023/08/09 03:25:47;;;;;;;22.25;10.00;;;;;;;31.35;nan;97682.75;5056234;28;20043;-67
2023/08/09 03:28:16;;;;;;;16.00;9.02;;;;;;;31.59;nan;97682.63;5083824;28;20054;-67
2023/08/09 03:30:46;;;;;;;14.73;8.40;;;;;;;31.77;nan;97694.00;5079840;28;20044;-66
2023/08/09 03:33:18;;;;;;;15.02;8.40;;;;;;;31.53;nan;97687.53;5068036;28;20064;-66
2023/08/09 03:35:48;;;;;;;17.15;9.05;;;;;;;31.58;nan;97695.50;5084695;28;20052;-67
2023/08/09 03:38:18;;;;;;;18.23;9.52;;;;;;;31.89;nan;97693.88;5079449;28;20047;-66
2023/08/09 03:40:47;;;;;;;22.55;10.25;;;;;;;31.79;nan;97700.69;5076984;28;20109;-64
2023/08/09 03:43:17;;;;;;;17.42;10.57;;;;;;;31.83;nan;97687.88;5076118;28;20043;-65
2023/08/09 03:45:46;;;;;;;17.02;11.27;;;;;;;32.02;nan;97698.88;5082265;28;20662;-65
2023/08/09 03:48:17;;;;;;;19.45;11.32;;;;;;;32.03;nan;97695.00;5062535;28;20050;-65
2023/08/09 03:50:47;;;;;;;24.75;10.88;;;;;;;32.17;nan;97696.50;5076240;28;20040;-66
2023/08/09 03:53:16;;;;;;;21.25;12.45;;;;;;;32.33;nan;97700.78;5054686;28;20058;-65
2023/08/09 03:55:46;;;;;;;30.85;12.77;;;;;;;32.41;nan;97697.03;5094485;28;20116;-66
2023/08/09 03:58:15;;;;;;;38.58;13.52;;;;;;;32.50;nan;97700.34;5077996;28;20127;-65
2023/08/09 04:00:45;;;;;;;23.70;13.70;;;;;;;32.62;nan;97701.38;5060071;28;20079;-65
2023/08/09 04:03:17;;;;;;;23.83;13.07;;;;;;;32.64;nan;97699.88;5079469;28;20105;-66
2023/08/09 04:05:46;;;;;;;63.22;16.20;;;;;;;32.75;nan;97698.13;5079365;28;20044;-67
2023/08/09 04:08:16;;;;;;;24.60;12.65;;;;;;;32.90;nan;97696.47;5082786;28;20614;-66
2023/08/09 04:10:46;;;;;;;26.02;13.30;;;;;;;32.93;nan;97698.47;5064407;28;20109;-67
2023/08/09 04:13:16;;;;;;;35.08;17.05;;;;;;;33.15;nan;97710.69;5097579;28;20043;-67
2023/08/09 04:15:47;;;;;;;28.33;14.38;;;;;;;33.06;nan;97708.13;5079667;28;20132;-66
2023/08/09 04:18:17;;;;;;;30.17;15.45;;;;;;;33.15;nan;97716.19;5076872;28;20047;-67
2023/08/09 04:20:46;;;;;;;28.23;15.38;;;;;;;33.21;nan;97712.75;5088043;28;20138;-67
2023/08/09 04:23:17;;;;;;;28.13;14.80;;;;;;;33.39;nan;97702.09;5082026;28;20051;-66
2023/08/09 04:25:48;;;;;;;28.00;14.45;;;;;;;33.26;nan;97714.41;5069753;28;20048;-66
2023/08/09 04:28:17;;;;;;;26.40;13.75;;;;;;;33.44;nan;97718.25;5068601;28;20048;-66
2023/08/09 04:30:46;;;;;;;31.00;14.38;;;;;;;33.77;nan;97712.94;5050141;28;20143;-66
2023/08/09 04:33:17;;;;;;;31.90;14.68;;;;;;;33.39;nan;97716.63;5051518;28;20118;-67
2023/08/09 04:35:46;;;;;;;29.75;14.95;;;;;;;33.22;nan;97713.56;5069010;28;20362;-66
2023/08/09 04:38:15;;;;;;;39.40;15.25;;;;;;;33.56;nan;97718.06;5068408;28;20048;-67
2023/08/09 04:40:45;;;;;;;29.58;14.38;;;;;;;33.71;nan;97716.38;5068851;28;20040;-67
2023/08/09 04:43:14;;;;;;;28.63;14.60;;;;;;;33.92;nan;97724.16;5068340;28;20219;-67
2023/08/09 04:45:44;;;;;;;33.25;14.43;;;;;;;34.17;nan;97722.59;5068922;28;20045;-68
2023/08/09 04:48:17;;;;;;;35.00;14.52;;;;;;;34.58;nan;97729.84;5067473;28;20679;-67
2023/08/09 04:50:47;;;;;;;38.30;15.18;;;;;;;34.93;nan;97729.50;5085915;28;20131;-67
2023/08/09 04:53:17;;;;;;;30.88;14.10;;;;;;;34.87;nan;97735.72;5050198;28;20054;-67
2023/08/09 04:55:46;;;;;;;30.60;13.10;;;;;;;35.03;nan;97737.09;5084170;28;20126;-67
2023/08/09 04:58:16;;;;;;;40.38;15.93;;;;;;;34.96;nan;97727.97;5086352;28;20048;-68
2023/08/09 05:00:46;;;;;;;28.05;14.10;;;;;;;34.72;nan;97732.81;5085200;28;20055;-67
2023/08/09 05:03:16;;;;;;;29.23;14.13;;;;;;;34.44;nan;97743.41;5051588;28;20670;-67
2023/08/09 05:05:46;;;;;;;35.17;14.63;;;;;;;34.82;nan;97745.13;5067000;28;20467;-67
2023/08/09 05:08:15;;;;;;;31.15;14.60;;;;;;;34.94;nan;97736.59;5067426;28;20079;-67
2023/08/09 05:10:44;;;;;;;39.45;15.73;;;;;;;34.99;nan;97729.97;5068357;28;20669;-67
2023/08/09 05:13:14;;;;;;;36.78;17.35;;;;;;;34.77;nan;97747.41;5050685;28;20621;-66
2023/08/09 05:15:44;;;;;;;39.40;17.10;;;;;;;34.81;nan;97742.72;5067966;28;20055;-68
2023/08/09 05:18:13;;;;;;;37.65;16.92;;;;;;;34.94;nan;97738.56;5065772;28;20068;-66
2023/08/09 05:20:42;;;;;;;44.83;17.60;;;;;;;34.87;nan;97732.97;5086145;28;20104;-67
2023/08/09 05:23:12;;;;;;;46.60;17.63;;;;;;;34.63;nan;97737.78;5079044;28;20610;-66
2023/08/09 05:25:41;;;;;;;43.40;18.42;;;;;;;34.60;nan;97743.25;5040184;28;20074;-67
2023/08/09 05:28:11;;;;;;;42.08;17.52;;;;;;;34.83;nan;97743.16;5064432;28;20044;-68
2023/08/09 05:30:40;;;;;;;33.10;16.05;;;;;;;34.56;nan;97739.66;5048078;28;20045;-66
2023/08/09 05:33:10;;;;;;;40.00;16.67;;;;;;;34.48;nan;97743.44;5047282;28;20547;-68
2023/08/09 05:35:40;;;;;;;40.92;17.58;;;;;;;34.42;nan;97734.75;5040662;28;20048;-68
2023/08/09 05:38:09;;;;;;;49.85;18.75;;;;;;;34.32;nan;97748.34;5063619;28;20055;-67
2023/08/09 05:40:38;;;;;;;41.10;16.80;;;;;;;34.31;nan;97744.78;5052767;28;20044;-68
2023/08/09 05:43:08;;;;;;;47.30;19.88;;;;;;;34.28;nan;97749.09;5055794;28;20122;-68
2023/08/09 05:45:37;;;;;;;48.00;19.55;;;;;;;34.00;nan;97747.84;5058583;28;20040;-67
2023/08/09 05:48:07;;;;;;;40.83;18.33;;;;;;;34.03;nan;97745.16;5047037;28;20040;-67
2023/08/09 05:50:36;;;;;;;49.28;20.27;;;;;;;34.05;nan;97753.81;5057931;28;20040;-68
2023/08/09 05:53:05;;;;;;;45.25;19.90;;;;;;;34.04;nan;97734.94;5067651;28;20047;-67
2023/08/09 05:55:35;;;;;;;41.92;19.50;;;;;;;34.03;nan;97745.16;5075612;28;20044;-67
2023/08/09 05:58:05;;;;;;;40.65;19.50;;;;;;;34.14;nan;97751.59;5057906;28;20140;-67
2023/08/09 06:00:37;;;;;;;43.55;20.15;;;;;;;33.98;nan;97750.97;5058340;28;20040;-70
2023/08/09 06:03:07;;;;;;;44.67;20.08;;;;;;;33.83;nan;97738.97;5044179;28;20182;-68
2023/08/09 06:05:36;;;;;;;40.38;18.45;;;;;;;34.17;nan;97739.09;5064090;28;20048;-67
2023/08/09 06:08:06;;;;;;;35.50;16.02;;;;;;;34.09;nan;97740.91;5050940;28;20067;-67
2023/08/09 06:10:35;;;;;;;36.92;14.25;;;;;;;33.92;nan;97735.94;5065744;28;20072;-67
2023/08/09 06:13:05;;;;;;;45.92;15.70;;;;;;;33.88;nan;97745.28;5052468;28;20043;-68
2023/08/09 06:15:35;;;;;;;37.80;15.63;;;;;;;33.76;nan;97743.56;5064083;28;20517;-67
2023/08/09 06:18:05;;;;;;;39.20;15.20;;;;;;;33.79;nan;97740.84;5040341;28;20144;-67
2023/08/09 06:20:35;;;;;;;46.42;15.40;;;;;;;33.77;nan;97740.41;5058203;28;20044;-68
2023/08/09 06:23:04;;;;;;;49.95;15.80;;;;;;;33.65;nan;97729.59;5069181;28;20169;-68
2023/08/09 06:25:34;;;;;;;36.97;14.00;;;;;;;33.99;nan;97738.03;5077127;28;20049;-67
2023/08/09 06:28:05;;;;;;;40.42;14.05;;;;;;;34.32;nan;97735.38;5065221;28;20049;-67
2023/08/09 06:30:34;;;;;;;38.03;12.20;;;;;;;34.50;nan;97728.19;5084716;28;20443;-66
2023/08/09 06:33:04;;;;;;;32.13;11.80;;;;;;;34.62;nan;97730.69;5059477;28;20055;-67
2023/08/09 06:35:34;;;;;;;35.35;13.35;;;;;;;34.59;nan;97727.88;5063888;28;20475;-67
2023/08/09 06:38:03;;;;;;;37.05;14.88;;;;;;;34.52;nan;97725.06;5080356;28;20505;-68
2023/08/09 06:40:43;;;;;;;34.05;12.27;;;;;;;34.54;nan;97737.25;5062030;28;20043;-66
2023/08/09 06:43:12;;;;;;;35.10;11.40;;;;;;;34.60;nan;97733.03;5062887;28;20040;-66
2023/08/09 06:45:44;;;;;;;39.58;13.10;;;;;;;34.68;nan;97731.97;5062516;28;20044;-66
2023/08/09 06:48:15;;;;;;;31.02;13.48;;;;;;;34.64;nan;97725.59;5076622;28;20067;-66
2023/08/09 06:50:48;;;;;;;45.38;14.32;;;;;;;34.53;nan;97719.16;5057058;28;20086;-66
2023/08/09 06:53:18;;;;;;;33.70;12.60;;;;;;;34.37;nan;97718.56;5061643;28;20227;-66
2023/08/09 06:55:47;;;;;;;38.25;10.90;;;;;;;34.34;nan;97710.28;5048604;28;20048;-66
2023/08/09 06:58:17;;;;;;;38.10;11.30;;;;;;;34.31;nan;97720.06;5074889;28;20060;-65
2023/08/09 07:00:47;;;;;;;31.90;10.18;;;;;;;34.38;nan;97720.16;5063231;28;20040;-66
2023/08/09 07:03:16;;;;;;;28.95;10.90;;;;;;;34.30;nan;97726.72;5081950;28;20092;-65
2023/08/09 07:05:46;;;;;;;41.67;9.63;;;;;;;34.13;nan;97719.78;5061528;28;20059;-65
2023/08/09 07:08:15;;;;;;;32.83;8.80;;;;;;;34.20;nan;97713.63;5078207;28;20052;-65
2023/08/09 07:10:45;;;;;;;31.30;11.15;;;;;;;34.13;nan;97719.78;5065552;28;20044;-67
2023/08/09 07:13:15;;;;;;;29.95;10.40;;;;;;;33.97;nan;97721.09;5082634;28;20083;-67
2023/08/09 07:15:44;;;;;;;30.40;9.18;;;;;;;34.01;nan;97713.69;5077383;28;20047;-67
2023/08/09 07:18:14;;;;;;;25.70;10.18;;;;;;;34.00;nan;97710.16;5063650;28;20051;-70
2023/08/09 07:20:43;;;;;;;27.75;10.27;;;;;;;34.15;nan;97705.66;5042397;28;20036;-69
2023/08/09 07:23:13;;;;;;;33.33;10.70;;;;;;;34.25;nan;97713.31;5064791;28;20055;-71
2023/08/09 07:25:46;;;;;;;43.45;12.00;;;;;;;34.06;nan;97714.19;5079907;28;20110;-68
2023/08/09 07:28:16;;;;;;;34.80;11.60;;;;;;;34.00;nan;97706.59;5084571;28;20052;-68
2023/08/09 07:30:45;;;;;;;32.67;10.30;;;;;;;33.90;nan;97710.00;5078206;28;20092;-68
2023/08/09 07:33:14;;;;;;;31.10;9.90;;;;;;;33.82;nan;97698.91;5071479;28;20075;-68
2023/08/09 07:35:44;;;;;;;34.88;18.55;;;;;;;33.29;nan;97697.19;5040623;28;20052;-69
2023/08/09 07:38:13;;;;;;;34.10;17.98;;;;;;;33.32;nan;97700.03;5055494;28;20048;-69
2023/08/09 07:40:42;;;;;;;35.60;18.30;;;;;;;33.27;nan;97694.03;5060418;28;20055;-68
2023/08/09 07:43:12;;;;;;;37.17;18.70;;;;;;;33.38;nan;97684.03;5071398;28;20076;-70
2023/08/09 07:45:45;;;;;;;34.05;16.83;;;;;;;33.37;nan;97676.97;5073043;28;20068;-68
2023/08/09 07:48:15;;;;;;;33.38;16.00;;;;;;;33.41;nan;97681.34;5076347;28;20062;-69
2023/08/09 07:50:44;;;;;;;38.60;18.38;;;;;;;33.35;nan;97679.28;5081594;28;20066;-67
2023/08/09 07:53:13;;;;;;;37.30;16.88;;;;;;;33.28;nan;97685.41;5065645;28;20056;-70
2023/08/09 07:55:43;;;;;;;24.23;12.05;;;;;;;33.08;nan;97681.13;5072317;28;20129;-67
2023/08/09 07:58:12;;;;;;;34.95;17.08;;;;;;;33.01;nan;97678.25;5064372;28;20049;-72
2023/08/09 08:00:42;;;;;;;46.78;18.23;;;;;;;33.17;nan;97678.16;5063698;28;20043;-70
2023/08/09 08:03:18;;;;;;;37.67;17.70;;;;;;;33.33;nan;97676.88;5066261;28;20392;-69
2023/08/09 08:05:47;;;;;;;36.80;17.85;;;;;;;33.42;nan;97674.69;5064206;28;20047;-67
2023/08/09 08:08:20;;;;;;;38.55;16.92;;;;;;;33.40;nan;97679.75;5066963;28;20125;-67
2023/08/09 08:10:49;;;;;;;33.05;16.00;;;;;;;33.48;nan;97677.94;5064282;28;20123;-67
2023/08/09 08:13:19;;;;;;;31.50;15.93;;;;;;;33.63;nan;97677.00;5081336;28;20051;-66
2023/08/09 08:15:50;;;;;;;28.73;14.90;;;;;;;33.82;nan;97665.94;5065180;28;20055;-67
2023/08/09 08:18:20;;;;;;;34.40;15.65;;;;;;;33.73;nan;97661.84;5067437;28;20078;-68
2023/08/09 08:20:49;;;;;;;34.28;15.75;;;;;;;33.97;nan;97658.69;5061739;28;20144;-67
2023/08/09 08:23:18;;;;;;;32.50;14.55;;;;;;;34.10;nan;97662.78;5060825;28;20058;-66
2023/08/09 08:25:48;;;;;;;26.73;14.63;;;;;;;34.08;nan;97659.63;5063195;28;20274;-69
2023/08/09 08:28:17;;;;;;;34.60;15.10;;;;;;;34.04;nan;97649.75;5060334;28;20059;-69
2023/08/09 08:30:47;;;;;;;30.45;14.98;;;;;;;33.95;nan;97643.72;5052781;28;20236;-66
2023/08/09 08:33:17;;;;;;;37.83;14.63;;;;;;;33.88;nan;97651.88;5081156;28;20059;-68
2023/08/09 08:35:48;;;;;;;29.23;14.30;;;;;;;33.90;nan;97653.09;5067457;28;20059;-66
2023/08/09 08:38:23;;;;;;;31.05;13.20;;;;;;;34.02;nan;97636.38;5084947;28;20052;-67
2023/08/09 08:40:54;;;;;;;33.88;11.70;;;;;;;34.08;nan;97636.88;5068658;28;20051;-66
2023/08/09 08:43:24;;;;;;;33.42;12.93;;;;;;;33.98;nan;97638.28;5077798;28;20079;-64
2023/08/09 08:45:55;;;;;;;32.95;12.85;;;;;;;33.95;nan;97644.53;5076146;28;20044;-65
2023/08/09 08:48:25;;;;;;;34.03;12.35;;;;;;;33.80;nan;97638.03;5041646;28;20055;-66
2023/08/09 08:50:57;;;;;;;32.15;12.10;;;;;;;33.74;nan;97631.28;5071796;28;20134;-65
2023/08/09 08:53:28;;;;;;;32.40;12.32;;;;;;;33.64;nan;97617.34;5065106;28;20052;-66
2023/08/09 08:55:59;;;;;;;30.73;11.82;;;;;;;33.60;nan;97620.03;5063334;28;20068;-66
2023/08/09 08:58:28;;;;;;;34.13;12.52;;;;;;;33.42;nan;97630.75;5073701;28;20079;-67
2023/08/09 09:00:59;;;;;;;25.05;11.38;;;;;;;33.33;nan;97624.72;5064074;28;20717;-66
2023/08/09 09:03:28;;;;;;;29.70;13.63;;;;;;;33.17;nan;97624.06;5067879;28;20048;-66
2023/08/09 09:05:57;;;;;;;28.63;11.93;;;;;;;33.14;nan;97627.56;5077020;28;20143;-64
2023/08/09 09:08:27;;;;;;;31.65;11.57;;;;;;;33.06;nan;97612.06;5069443;28;20504;-65
2023/08/09 09:10:59;;;;;;;35.88;11.90;;;;;;;32.92;nan;97615.41;5008286;28;20088;-66
2023/08/09 09:13:33;;;;;;;27.63;11.53;;;;;;;32.83;nan;97614.84;5047978;28;20048;-67
2023/08/09 09:16:04;;;;;;;26.33;12.30;;;;;;;32.66;nan;97609.81;5062128;28;20173;-65
2023/08/09 09:18:48;;;;;;;32.05;12.82;;;;;;;32.64;nan;97606.63;5043784;28;20048;-67
2023/08/09 09:21:18;;;;;;;33.58;12.35;;;;;;;32.54;nan;97613.47;5076044;28;20246;-66
2023/08/09 09:23:48;;;;;;;31.17;12.88;;;;;;;32.44;nan;97607.81;5050942;28;20128;-66
2023/08/09 09:26:18;;;;;;;29.90;13.23;;;;;;;32.30;nan;97602.03;5080101;28;20450;-66
2023/08/09 09:28:48;;;;;;;29.20;14.57;;;;;;;32.23;nan;97613.63;5062913;28;20058;-66
2023/08/09 09:31:18;;;;;;;31.77;15.70;;;;;;;32.04;nan;97617.13;5057450;28;20044;-65
2023/08/09 09:33:49;;;;;;;37.40;16.33;;;;;;;32.03;nan;97628.47;5046381;28;20052;-65
2023/08/09 09:36:19;;;;;;;43.30;18.83;;;;;;;31.66;nan;97628.00;5074214;28;20094;-65
2023/08/09 09:38:53;;;;;;;42.42;16.50;;;;;;;31.04;nan;97613.19;5070432;28;20056;-67
2023/08/09 09:41:23;;;;;;;27.42;13.57;;;;;;;30.12;nan;97620.78;5062005;28;20067;-69
2023/08/09 09:43:52;;;;;;;22.25;10.20;;;;;;;29.34;nan;97618.38;5072956;28;20502;-67
2023/08/09 09:46:25;;;;;;;13.73;8.00;;;;;;;28.79;nan;97622.38;5068283;28;20059;-67
2023/08/09 09:49:05;;;;;;;12.57;7.18;;;;;;;28.67;nan;97614.13;5079491;28;20114;-69
2023/08/09 09:51:35;;;;;;;13.90;6.95;;;;;;;28.57;nan;97612.63;5074670;28;20127;-69
2023/08/09 09:54:06;;;;;;;14.90;7.15;;;;;;;28.55;nan;97614.06;5077808;28;20051;-70
2023/08/09 09:56:36;;;;;;;15.43;8.52;;;;;;;28.55;nan;97609.41;5071475;28;20546;-68
2023/08/09 09:59:07;;;;;;;16.75;9.63;;;;;;;28.50;nan;97611.59;5076495;28;20055;-69
2023/08/09 10:01:42;;;;;;;21.50;11.23;;;;;;;28.65;nan;97612.84;5077535;28;20134;-70
2023/08/09 10:04:16;;;;;;;22.25;12.70;;;;;;;28.75;nan;97602.38;5055487;28;20135;-68
2023/08/09 10:06:47;;;;;;;22.95;14.52;;;;;;;28.79;nan;97607.94;5061056;28;20104;-72
2023/08/09 10:09:18;;;;;;;22.52;14.38;;;;;;;28.85;nan;97603.88;5055910;28;20062;-72
2023/08/09 10:11:50;;;;;;;25.23;15.32;;;;;;;28.91;nan;97606.03;5056187;28;20533;-71
2023/08/09 10:14:21;;;;;;;25.23;14.45;;;;;;;28.93;nan;97598.31;5080572;28;20063;-71
2023/08/09 10:16:51;;;;;;;24.60;15.48;;;;;;;29.14;nan;97598.22;5056306;28;20121;-69
2023/08/09 10:19:30;;;;;;;23.25;14.60;;;;;;;29.37;nan;97587.69;5051463;28;20040;-71
2023/08/09 10:22:02;;;;;;;29.08;16.02;;;;;;;29.58;nan;97587.53;5052227;28;20044;-68
2023/08/09 10:24:31;;;;;;;20.70;12.87;;;;;;;29.74;nan;97577.53;5053482;28;20063;-68
2023/08/09 10:27:04;;;;;;;27.00;13.30;;;;;;;29.78;nan;97568.28;5052363;28;20052;-68
2023/08/09 10:29:34;;;;;;;15.13;12.10;;;;;;;29.86;nan;97585.66;5053030;28;20071;-66
2023/08/09 10:32:05;;;;;;;20.75;11.90;;;;;;;29.96;nan;97578.97;5067616;28;20158;-67
2023/08/09 10:34:42;;;;;;;22.83;11.73;;;;;;;30.05;nan;97571.44;5066035;28;20056;-68
2023/08/09 10:37:23;;;;;;;20.02;11.57;;;;;;;30.19;nan;97567.16;5043244;28;20467;-68
2023/08/09 10:40:16;;;;;;;21.75;12.38;;;;;;;30.32;nan;97562.41;5065835;28;20076;-68
2023/08/09 10:42:50;;;;;;;26.20;13.57;;;;;;;30.45;nan;97557.75;5062580;28;20048;-66
2023/08/09 10:45:20;;;;;;;24.30;12.43;;;;;;;30.60;nan;97556.94;5034124;28;20337;-68
2023/08/09 10:47:50;;;;;;;23.65;11.52;;;;;;;30.75;nan;97567.13;5052439;28;20118;-69
2023/08/09 10:50:21;;;;;;;22.42;10.98;;;;;;;30.88;nan;97554.97;5064774;28;20044;-67
2023/08/09 10:52:51;;;;;;;22.10;11.23;;;;;;;31.06;nan;97553.47;5061800;28;20079;-68
2023/08/09 10:55:21;;;;;;;20.85;10.35;;;;;;;31.13;nan;97555.59;5028880;28;20118;-67
2023/08/09 10:57:52;;;;;;;19.55;10.10;;;;;;;31.23;nan;97551.50;5054217;28;20063;-67
2023/08/09 11:00:23;;;;;;;21.42;9.63;;;;;;;31.29;nan;97550.88;5044460;28;20687;-67
2023/08/09 11:02:58;;;;;;;19.33;9.63;;;;;;;31.35;nan;97554.94;5070934;28;20129;-67
2023/08/09 11:05:27;;;;;;;25.05;11.02;;;;;;;31.42;nan;97548.84;5043426;28;20056;-68
2023/08/09 11:08:00;;;;;;;24.65;10.57;;;;;;;31.45;nan;97545.38;5070041;28;20201;-67
2023/08/09 11:10:34;;;;;;;22.85;10.23;;;;;;;31.43;nan;97531.25;5051662;28;20473;-67
2023/08/09 11:13:12;;;;;;;27.88;9.85;;;;;;;31.42;nan;97535.16;5067714;28;20041;-68
2023/08/09 11:15:44;;;;;;;21.45;9.60;;;;;;;31.42;nan;97535.16;5067211;28;20182;-66
2023/08/09 11:18:15;;;;;;;26.08;10.00;;;;;;;31.42;nan;97530.47;5051843;28;20858;-66
2023/08/09 11:20:47;;;;;;;26.38;10.15;;;;;;;31.49;nan;97535.31;5035729;28;20064;-65
2023/08/09 11:23:17;;;;;;;16.90;9.43;;;;;;;31.47;nan;97529.38;5036099;28;20067;-66
2023/08/09 11:25:46;;;;;;;25.98;11.43;;;;;;;31.48;nan;97525.50;5075747;28;20056;-67
2023/08/09 11:28:15;;;;;;;23.25;10.55;;;;;;;31.49;nan;97529.81;5042017;28;20050;-67
2023/08/09 11:30:52;;;;;;;18.10;9.20;;;;;;;31.52;nan;97524.44;5062974;28;20431;-66
2023/08/09 11:33:21;;;;;;;19.55;10.30;;;;;;;31.54;nan;97518.59;5078191;28;20136;-67
2023/08/09 11:35:52;;;;;;;21.33;9.23;;;;;;;31.55;nan;97515.56;5057815;28;20660;-66
2023/08/09 11:38:21;;;;;;;20.48;9.60;;;;;;;31.60;nan;97528.94;5082699;28;20056;-66
2023/08/09 11:40:51;;;;;;;21.23;9.32;;;;;;;31.61;nan;97524.25;5078995;28;20056;-66
2023/08/09 11:43:21;;;;;;;22.75;10.30;;;;;;;31.65;nan;97525.91;5081833;28;20148;-66
2023/08/09 11:45:54;;;;;;;16.00;8.35;;;;;;;31.70;nan;97524.03;5081540;28;20040;-66
2023/08/09 11:48:38;;;;;;;20.30;9.40;;;;;;;31.76;nan;97526.16;5074165;28;20059;-66
2023/08/09 11:51:12;;;;;;;16.20;9.43;;;;;;;31.82;nan;97526.66;5061461;28;20432;-66